CheckWX is a tool to help pilots better visualize weather data.  It is not intended as a substitute for an official pre-flight weather briefing.

08:57:07 UTC

WBKL METAR
Labuan Airport
Labuan, Malaysia
Current

57 mins ago

WBKL 180800Z VRB05KT 9999 FEW015 FEW017CB BKN300 32/25 Q1008
Observed
Jun-18 @ 08:00 UTC
Wind
  • Variable at 5 KTS
Visibility
10,000+ meters
Flight Rules
VFR
Cloud Levels
  • Few at 1,500' AGL
  • Few at 1,700' AGL
  • Broken at 30,000' AGL
Temperature
32°C / 90°F
Dewpoint
25°C / 77°F
Heat Index
40°C / 104°F
Humidity
67%
Altimeter
29.76" Hg
Pressure
1007.92 hPa
Previous

2 hours ago

WBKL 180700Z VRB04KT 9999 FEW015 FEW017CB BKN300 32/24 Q1008
Observed
Jun-18 @ 07:00 UTC
Wind
  • Variable at 4 KTS
Visibility
10,000+ meters
Flight Rules
VFR
Cloud Levels
  • Few at 1,500' AGL
  • Few at 1,700' AGL
  • Broken at 30,000' AGL
Temperature
32°C / 90°F
Dewpoint
24°C / 75°F
Heat Index
38°C / 101°F
Humidity
63%
Altimeter
29.76" Hg
Pressure
1007.92 hPa
Previous

3 hours ago

WBKL 180600Z VRB04KT 9999 FEW015 FEW017CB BKN300 33/25 Q1009
Observed
Jun-18 @ 06:00 UTC
Wind
  • Variable at 4 KTS
Visibility
10,000+ meters
Flight Rules
VFR
Cloud Levels
  • Few at 1,500' AGL
  • Few at 1,700' AGL
  • Broken at 30,000' AGL
Temperature
33°C / 91°F
Dewpoint
25°C / 77°F
Heat Index
40°C / 104°F
Humidity
63%
Altimeter
29.79" Hg
Pressure
1008.92 hPa